sensor_id;sensor_type;location;lat;lon;timestamp;temperature;humidity
35325;DHT22;35135;47.510;19.036;2024-01-07T00:00:03;21.10;52.50
35325;DHT22;35135;47.510;19.036;2024-01-07T00:02:29;21.10;52.50
35325;DHT22;35135;47.510;19.036;2024-01-07T00:04:56;21.10;52.50
35325;DHT22;35135;47.510;19.036;2024-01-07T00:07:22;21.10;52.40
35325;DHT22;35135;47.510;19.036;2024-01-07T00:09:47;21.10;52.50
35325;DHT22;35135;47.510;19.036;2024-01-07T00:12:13;21.10;52.40
35325;DHT22;35135;47.510;19.036;2024-01-07T00:14:39;21.10;52.40
35325;DHT22;35135;47.510;19.036;2024-01-07T00:17:04;21.10;52.40
35325;DHT22;35135;47.510;19.036;2024-01-07T00:19:30;21.10;52.50
35325;DHT22;35135;47.510;19.036;2024-01-07T00:22:01;21.10;52.50
35325;DHT22;35135;47.510;19.036;2024-01-07T00:24:26;21.10;52.50
35325;DHT22;35135;47.510;19.036;2024-01-07T00:26:55;21.10;52.50
35325;DHT22;35135;47.510;19.036;2024-01-07T00:29:21;21.10;52.50
35325;DHT22;35135;47.510;19.036;2024-01-07T00:31:47;21.10;52.50
35325;DHT22;35135;47.510;19.036;2024-01-07T00:34:12;21.00;52.40
35325;DHT22;35135;47.510;19.036;2024-01-07T00:36:38;21.00;52.40
35325;DHT22;35135;47.510;19.036;2024-01-07T00:39:04;21.10;52.50
35325;DHT22;35135;47.510;19.036;2024-01-07T00:41:29;21.00;52.50
35325;DHT22;35135;47.510;19.036;2024-01-07T00:43:58;21.10;52.50
35325;DHT22;35135;47.510;19.036;2024-01-07T00:46:23;21.00;52.40
35325;DHT22;35135;47.510;19.036;2024-01-07T00:48:49;21.00;52.40
35325;DHT22;35135;47.510;19.036;2024-01-07T00:51:15;21.10;52.50
35325;DHT22;35135;47.510;19.036;2024-01-07T00:53:40;21.00;52.40
35325;DHT22;35135;47.510;19.036;2024-01-07T00:56:06;21.00;52.50
35325;DHT22;35135;47.510;19.036;2024-01-07T00:58:32;21.00;52.40
35325;DHT22;35135;47.510;19.036;2024-01-07T01:00:57;21.00;52.40
35325;DHT22;35135;47.510;19.036;2024-01-07T01:03:25;21.00;52.50
35325;DHT22;35135;47.510;19.036;2024-01-07T01:05:52;21.00;52.50
35325;DHT22;35135;47.510;19.036;2024-01-07T01:08:18;21.00;52.50
35325;DHT22;35135;47.510;19.036;2024-01-07T01:10:44;21.00;52.50
35325;DHT22;35135;47.510;19.036;2024-01-07T01:13:10;21.00;52.50
35325;DHT22;35135;47.510;19.036;2024-01-07T01:15:35;21.00;52.50
35325;DHT22;35135;47.510;19.036;2024-01-07T01:18:01;21.00;52.50
35325;DHT22;35135;47.510;19.036;2024-01-07T01:20:27;21.00;52.50
35325;DHT22;35135;47.510;19.036;2024-01-07T01:22:52;21.00;52.50
35325;DHT22;35135;47.510;19.036;2024-01-07T01:25:18;21.00;52.50
35325;DHT22;35135;47.510;19.036;2024-01-07T01:27:44;21.00;52.50
35325;DHT22;35135;47.510;19.036;2024-01-07T01:30:11;21.00;52.60
35325;DHT22;35135;47.510;19.036;2024-01-07T01:32:37;21.00;52.50
35325;DHT22;35135;47.510;19.036;2024-01-07T01:35:02;21.00;52.60
35325;DHT22;35135;47.510;19.036;2024-01-07T01:37:29;21.00;52.50
35325;DHT22;35135;47.510;19.036;2024-01-07T01:39:58;21.00;53.10
35325;DHT22;35135;47.510;19.036;2024-01-07T01:42:24;21.00;52.60
35325;DHT22;35135;47.510;19.036;2024-01-07T01:44:50;21.00;52.50
35325;DHT22;35135;47.510;19.036;2024-01-07T01:47:16;21.00;52.50
35325;DHT22;35135;47.510;19.036;2024-01-07T01:49:42;21.00;52.50
35325;DHT22;35135;47.510;19.036;2024-01-07T01:52:09;21.00;52.60
35325;DHT22;35135;47.510;19.036;2024-01-07T01:54:35;21.00;52.60
35325;DHT22;35135;47.510;19.036;2024-01-07T01:57:01;21.00;52.50
35325;DHT22;35135;47.510;19.036;2024-01-07T01:59:28;21.00;52.50
35325;DHT22;35135;47.510;19.036;2024-01-07T02:01:54;21.00;52.50
35325;DHT22;35135;47.510;19.036;2024-01-07T02:04:20;20.90;52.50
35325;DHT22;35135;47.510;19.036;2024-01-07T02:06:46;21.00;52.50
35325;DHT22;35135;47.510;19.036;2024-01-07T02:09:12;21.00;52.60
35325;DHT22;35135;47.510;19.036;2024-01-07T02:11:38;20.90;52.50
35325;DHT22;35135;47.510;19.036;2024-01-07T02:14:03;20.90;52.50
35325;DHT22;35135;47.510;19.036;2024-01-07T02:16:29;20.90;52.40
35325;DHT22;35135;47.510;19.036;2024-01-07T02:18:55;20.90;52.50
35325;DHT22;35135;47.510;19.036;2024-01-07T02:21:20;20.90;52.50
35325;DHT22;35135;47.510;19.036;2024-01-07T02:23:46;21.00;52.50
35325;DHT22;35135;47.510;19.036;2024-01-07T02:26:12;21.00;52.60
35325;DHT22;35135;47.510;19.036;2024-01-07T02:28:37;20.90;52.60
35325;DHT22;35135;47.510;19.036;2024-01-07T02:31:03;21.00;52.60
35325;DHT22;35135;47.510;19.036;2024-01-07T02:33:29;20.90;52.60
35325;DHT22;35135;47.510;19.036;2024-01-07T02:35:56;20.90;52.50
35325;DHT22;35135;47.510;19.036;2024-01-07T02:38:22;20.90;52.50
35325;DHT22;35135;47.510;19.036;2024-01-07T02:40:47;20.90;52.50
35325;DHT22;35135;47.510;19.036;2024-01-07T02:43:13;20.90;52.50
35325;DHT22;35135;47.510;19.036;2024-01-07T02:45:39;20.90;52.50
35325;DHT22;35135;47.510;19.036;2024-01-07T02:48:05;20.90;52.50
35325;DHT22;35135;47.510;19.036;2024-01-07T02:50:32;20.90;52.60
35325;DHT22;35135;47.510;19.036;2024-01-07T02:52:57;20.90;52.50
35325;DHT22;35135;47.510;19.036;2024-01-07T02:55:23;20.90;52.60
35325;DHT22;35135;47.510;19.036;2024-01-07T02:57:49;20.90;52.50
35325;DHT22;35135;47.510;19.036;2024-01-07T03:00:14;20.90;53.10
35325;DHT22;35135;47.510;19.036;2024-01-07T03:02:40;20.90;52.50
35325;DHT22;35135;47.510;19.036;2024-01-07T03:05:06;20.90;52.50
35325;DHT22;35135;47.510;19.036;2024-01-07T03:07:32;20.90;52.50
35325;DHT22;35135;47.510;19.036;2024-01-07T03:09:58;20.90;52.50
35325;DHT22;35135;47.510;19.036;2024-01-07T03:12:23;20.90;52.60
35325;DHT22;35135;47.510;19.036;2024-01-07T03:14:49;20.90;52.50
35325;DHT22;35135;47.510;19.036;2024-01-07T03:17:14;20.90;52.50
35325;DHT22;35135;47.510;19.036;2024-01-07T03:19:42;20.90;52.50
35325;DHT22;35135;47.510;19.036;2024-01-07T03:22:08;20.90;52.50
35325;DHT22;35135;47.510;19.036;2024-01-07T03:24:34;20.90;52.60
35325;DHT22;35135;47.510;19.036;2024-01-07T03:27:00;20.90;52.50
35325;DHT22;35135;47.510;19.036;2024-01-07T03:29:25;20.90;52.60
35325;DHT22;35135;47.510;19.036;2024-01-07T03:31:51;20.80;52.50
35325;DHT22;35135;47.510;19.036;2024-01-07T03:34:18;20.90;52.60
35325;DHT22;35135;47.510;19.036;2024-01-07T03:36:44;20.80;52.50
35325;DHT22;35135;47.510;19.036;2024-01-07T03:39:10;20.80;52.50
35325;DHT22;35135;47.510;19.036;2024-01-07T03:41:35;20.80;52.50
35325;DHT22;35135;47.510;19.036;2024-01-07T03:44:01;20.80;52.50
35325;DHT22;35135;47.510;19.036;2024-01-07T03:46:27;20.90;52.60
35325;DHT22;35135;47.510;19.036;2024-01-07T03:48:53;20.90;52.60
35325;DHT22;35135;47.510;19.036;2024-01-07T03:51:18;20.90;52.60
35325;DHT22;35135;47.510;19.036;2024-01-07T03:53:44;20.90;52.60
35325;DHT22;35135;47.510;19.036;2024-01-07T03:56:10;20.80;52.50
35325;DHT22;35135;47.510;19.036;2024-01-07T03:58:35;20.90;52.60
35325;DHT22;35135;47.510;19.036;2024-01-07T04:01:01;20.80;52.50
35325;DHT22;35135;47.510;19.036;2024-01-07T04:03:27;20.80;52.40
35325;DHT22;35135;47.510;19.036;2024-01-07T04:05:52;20.80;52.50
35325;DHT22;35135;47.510;19.036;2024-01-07T04:08:18;20.80;52.50
35325;DHT22;35135;47.510;19.036;2024-01-07T04:10:44;20.80;52.40
35325;DHT22;35135;47.510;19.036;2024-01-07T04:13:09;20.80;52.50
35325;DHT22;35135;47.510;19.036;2024-01-07T04:15:35;20.80;52.50
35325;DHT22;35135;47.510;19.036;2024-01-07T04:18:02;20.80;52.50
35325;DHT22;35135;47.510;19.036;2024-01-07T04:20:29;20.80;52.50
35325;DHT22;35135;47.510;19.036;2024-01-07T04:22:55;20.80;52.50
35325;DHT22;35135;47.510;19.036;2024-01-07T04:25:20;20.80;52.60
35325;DHT22;35135;47.510;19.036;2024-01-07T04:27:46;20.80;52.50
35325;DHT22;35135;47.510;19.036;2024-01-07T04:30:12;20.80;52.50
35325;DHT22;35135;47.510;19.036;2024-01-07T04:32:37;20.80;52.50
35325;DHT22;35135;47.510;19.036;2024-01-07T04:35:03;20.80;52.50
35325;DHT22;35135;47.510;19.036;2024-01-07T04:37:29;20.80;52.50
35325;DHT22;35135;47.510;19.036;2024-01-07T04:39:55;20.80;52.50
35325;DHT22;35135;47.510;19.036;2024-01-07T04:42:20;20.80;52.50
35325;DHT22;35135;47.510;19.036;2024-01-07T04:44:46;20.80;52.50
35325;DHT22;35135;47.510;19.036;2024-01-07T04:47:27;20.80;52.50
35325;DHT22;35135;47.510;19.036;2024-01-07T04:49:54;20.80;52.50
35325;DHT22;35135;47.510;19.036;2024-01-07T04:52:21;20.80;52.60
35325;DHT22;35135;47.510;19.036;2024-01-07T04:54:46;20.80;52.60
35325;DHT22;35135;47.510;19.036;2024-01-07T04:57:12;20.80;52.60
35325;DHT22;35135;47.510;19.036;2024-01-07T04:59:38;20.80;52.60
35325;DHT22;35135;47.510;19.036;2024-01-07T05:02:03;20.80;52.60
35325;DHT22;35135;47.510;19.036;2024-01-07T05:04:29;20.80;52.60
35325;DHT22;35135;47.510;19.036;2024-01-07T05:06:55;20.80;52.60
35325;DHT22;35135;47.510;19.036;2024-01-07T05:09:20;20.80;52.50
35325;DHT22;35135;47.510;19.036;2024-01-07T05:11:46;20.80;52.50
35325;DHT22;35135;47.510;19.036;2024-01-07T05:14:12;20.90;53.00
35325;DHT22;35135;47.510;19.036;2024-01-07T05:16:37;20.90;52.40
35325;DHT22;35135;47.510;19.036;2024-01-07T05:19:03;21.00;52.20
35325;DHT22;35135;47.510;19.036;2024-01-07T05:21:29;21.20;52.10
35325;DHT22;35135;47.510;19.036;2024-01-07T05:23:55;21.30;51.90
35325;DHT22;35135;47.510;19.036;2024-01-07T05:26:21;21.50;51.90
35325;DHT22;35135;47.510;19.036;2024-01-07T05:28:47;21.50;51.60
35325;DHT22;35135;47.510;19.036;2024-01-07T05:31:16;21.70;51.40
35325;DHT22;35135;47.510;19.036;2024-01-07T05:33:45;21.80;51.20
35325;DHT22;35135;47.510;19.036;2024-01-07T05:36:14;21.90;51.10
35325;DHT22;35135;47.510;19.036;2024-01-07T05:38:43;22.00;51.00
35325;DHT22;35135;47.510;19.036;2024-01-07T05:41:08;22.00;50.90
35325;DHT22;35135;47.510;19.036;2024-01-07T05:43:35;22.10;50.90
35325;DHT22;35135;47.510;19.036;2024-01-07T05:46:01;22.10;50.80
35325;DHT22;35135;47.510;19.036;2024-01-07T05:48:28;22.10;50.80
35325;DHT22;35135;47.510;19.036;2024-01-07T05:50:54;22.10;50.70
35325;DHT22;35135;47.510;19.036;2024-01-07T05:53:20;22.10;50.70
35325;DHT22;35135;47.510;19.036;2024-01-07T05:55:45;22.10;50.80
35325;DHT22;35135;47.510;19.036;2024-01-07T05:58:11;22.10;50.80
35325;DHT22;35135;47.510;19.036;2024-01-07T06:00:38;22.00;50.80
35325;DHT22;35135;47.510;19.036;2024-01-07T06:03:03;22.00;50.80
35325;DHT22;35135;47.510;19.036;2024-01-07T06:05:29;22.00;50.80
35325;DHT22;35135;47.510;19.036;2024-01-07T06:07:55;22.00;50.80
35325;DHT22;35135;47.510;19.036;2024-01-07T06:10:21;22.00;50.90
35325;DHT22;35135;47.510;19.036;2024-01-07T06:12:46;22.00;50.80
35325;DHT22;35135;47.510;19.036;2024-01-07T06:15:12;21.90;50.80
35325;DHT22;35135;47.510;19.036;2024-01-07T06:17:38;21.90;50.80
35325;DHT22;35135;47.510;19.036;2024-01-07T06:20:04;21.90;50.90
35325;DHT22;35135;47.510;19.036;2024-01-07T06:22:31;21.90;51.00
35325;DHT22;35135;47.510;19.036;2024-01-07T06:24:56;21.90;51.00
35325;DHT22;35135;47.510;19.036;2024-01-07T06:27:22;21.80;51.00
35325;DHT22;35135;47.510;19.036;2024-01-07T06:29:48;21.80;51.00
35325;DHT22;35135;47.510;19.036;2024-01-07T06:32:14;21.80;51.10
35325;DHT22;35135;47.510;19.036;2024-01-07T06:34:39;21.80;51.10
35325;DHT22;35135;47.510;19.036;2024-01-07T06:37:05;21.70;51.10
35325;DHT22;35135;47.510;19.036;2024-01-07T06:39:33;21.70;51.20
35325;DHT22;35135;47.510;19.036;2024-01-07T06:41:59;21.70;51.20
35325;DHT22;35135;47.510;19.036;2024-01-07T06:44:25;21.70;51.20
35325;DHT22;35135;47.510;19.036;2024-01-07T06:46:51;21.70;51.30
35325;DHT22;35135;47.510;19.036;2024-01-07T06:49:16;21.60;51.30
35325;DHT22;35135;47.510;19.036;2024-01-07T06:51:43;21.60;51.30
35325;DHT22;35135;47.510;19.036;2024-01-07T06:54:08;21.60;51.40
35325;DHT22;35135;47.510;19.036;2024-01-07T06:56:34;21.60;51.40
35325;DHT22;35135;47.510;19.036;2024-01-07T06:59:00;21.60;51.40
35325;DHT22;35135;47.510;19.036;2024-01-07T07:01:26;21.60;51.30
35325;DHT22;35135;47.510;19.036;2024-01-07T07:03:51;21.60;51.40
35325;DHT22;35135;47.510;19.036;2024-01-07T07:06:17;21.60;51.30
35325;DHT22;35135;47.510;19.036;2024-01-07T07:08:43;21.60;51.40
35325;DHT22;35135;47.510;19.036;2024-01-07T07:11:09;21.50;51.30
35325;DHT22;35135;47.510;19.036;2024-01-07T07:13:35;21.50;51.30
35325;DHT22;35135;47.510;19.036;2024-01-07T07:16:01;21.50;51.30
35325;DHT22;35135;47.510;19.036;2024-01-07T07:18:27;21.50;51.40
35325;DHT22;35135;47.510;19.036;2024-01-07T07:20:52;21.50;51.30
35325;DHT22;35135;47.510;19.036;2024-01-07T07:23:18;21.50;51.40
35325;DHT22;35135;47.510;19.036;2024-01-07T07:25:44;21.50;51.40
35325;DHT22;35135;47.510;19.036;2024-01-07T07:28:10;21.50;51.40
35325;DHT22;35135;47.510;19.036;2024-01-07T07:30:35;21.50;51.40
35325;DHT22;35135;47.510;19.036;2024-01-07T07:33:02;21.40;51.30
35325;DHT22;35135;47.510;19.036;2024-01-07T07:35:28;21.40;51.30
35325;DHT22;35135;47.510;19.036;2024-01-07T07:37:54;21.40;51.30
35325;DHT22;35135;47.510;19.036;2024-01-07T07:40:20;21.40;51.30
35325;DHT22;35135;47.510;19.036;2024-01-07T07:42:46;21.40;51.30
35325;DHT22;35135;47.510;19.036;2024-01-07T07:45:12;21.40;51.40
35325;DHT22;35135;47.510;19.036;2024-01-07T07:47:38;21.40;51.40
35325;DHT22;35135;47.510;19.036;2024-01-07T07:50:07;21.40;51.40
35325;DHT22;35135;47.510;19.036;2024-01-07T07:52:33;21.40;51.40
35325;DHT22;35135;47.510;19.036;2024-01-07T07:54:58;21.40;51.50
35325;DHT22;35135;47.510;19.036;2024-01-07T07:57:24;21.40;51.50
35325;DHT22;35135;47.510;19.036;2024-01-07T07:59:51;21.40;51.50
35325;DHT22;35135;47.510;19.036;2024-01-07T08:02:17;21.40;51.50
35325;DHT22;35135;47.510;19.036;2024-01-07T08:04:43;21.40;51.50
35325;DHT22;35135;47.510;19.036;2024-01-07T08:07:09;21.40;51.50
35325;DHT22;35135;47.510;19.036;2024-01-07T08:09:35;21.30;51.70
35325;DHT22;35135;47.510;19.036;2024-01-07T08:12:05;21.30;51.70
35325;DHT22;35135;47.510;19.036;2024-01-07T08:14:31;21.30;51.70
35325;DHT22;35135;47.510;19.036;2024-01-07T08:16:57;21.30;51.70
35325;DHT22;35135;47.510;19.036;2024-01-07T08:19:23;21.30;51.70
35325;DHT22;35135;47.510;19.036;2024-01-07T08:21:49;21.30;51.80
35325;DHT22;35135;47.510;19.036;2024-01-07T08:24:14;21.30;51.70
35325;DHT22;35135;47.510;19.036;2024-01-07T08:26:40;21.30;51.90
35325;DHT22;35135;47.510;19.036;2024-01-07T08:29:06;21.30;51.80
35325;DHT22;35135;47.510;19.036;2024-01-07T08:31:32;21.30;51.90
35325;DHT22;35135;47.510;19.036;2024-01-07T08:33:58;21.30;51.90
35325;DHT22;35135;47.510;19.036;2024-01-07T08:36:24;21.30;51.90
35325;DHT22;35135;47.510;19.036;2024-01-07T08:38:49;21.30;51.90
35325;DHT22;35135;47.510;19.036;2024-01-07T08:41:16;21.30;52.00
35325;DHT22;35135;47.510;19.036;2024-01-07T08:43:41;21.20;52.00
35325;DHT22;35135;47.510;19.036;2024-01-07T08:46:07;21.30;52.00
35325;DHT22;35135;47.510;19.036;2024-01-07T08:48:33;21.20;52.10
35325;DHT22;35135;47.510;19.036;2024-01-07T08:50:59;21.30;52.20
35325;DHT22;35135;47.510;19.036;2024-01-07T08:53:24;21.20;52.20
35325;DHT22;35135;47.510;19.036;2024-01-07T08:55:50;21.20;52.30
35325;DHT22;35135;47.510;19.036;2024-01-07T08:58:16;21.20;52.30
35325;DHT22;35135;47.510;19.036;2024-01-07T09:00:45;21.20;52.20
35325;DHT22;35135;47.510;19.036;2024-01-07T09:03:11;21.20;51.90
35325;DHT22;35135;47.510;19.036;2024-01-07T09:05:37;21.20;51.70
35325;DHT22;35135;47.510;19.036;2024-01-07T09:08:03;21.20;51.70
35325;DHT22;35135;47.510;19.036;2024-01-07T09:10:28;21.20;51.70
35325;DHT22;35135;47.510;19.036;2024-01-07T09:12:54;21.20;51.70
35325;DHT22;35135;47.510;19.036;2024-01-07T09:15:20;21.20;51.70
35325;DHT22;35135;47.510;19.036;2024-01-07T09:17:46;21.20;51.70
35325;DHT22;35135;47.510;19.036;2024-01-07T09:20:13;21.20;51.70
35325;DHT22;35135;47.510;19.036;2024-01-07T09:22:39;21.20;51.70
35325;DHT22;35135;47.510;19.036;2024-01-07T09:25:06;21.20;51.70
35325;DHT22;35135;47.510;19.036;2024-01-07T09:27:33;21.20;51.70
35325;DHT22;35135;47.510;19.036;2024-01-07T09:29:58;21.20;51.70
35325;DHT22;35135;47.510;19.036;2024-01-07T09:32:25;21.20;51.70
35325;DHT22;35135;47.510;19.036;2024-01-07T09:34:50;21.20;51.80
35325;DHT22;35135;47.510;19.036;2024-01-07T09:37:17;21.20;51.70
35325;DHT22;35135;47.510;19.036;2024-01-07T09:39:43;21.20;51.70
35325;DHT22;35135;47.510;19.036;2024-01-07T09:42:27;21.20;51.80
35325;DHT22;35135;47.510;19.036;2024-01-07T09:44:53;21.10;51.70
35325;DHT22;35135;47.510;19.036;2024-01-07T09:47:19;21.10;51.70
35325;DHT22;35135;47.510;19.036;2024-01-07T09:49:46;21.10;51.80
35325;DHT22;35135;47.510;19.036;2024-01-07T09:52:12;21.10;51.80
35325;DHT22;35135;47.510;19.036;2024-01-07T09:54:39;21.10;52.10
35325;DHT22;35135;47.510;19.036;2024-01-07T09:57:05;21.10;52.10
35325;DHT22;35135;47.510;19.036;2024-01-07T09:59:36;21.10;52.00
35325;DHT22;35135;47.510;19.036;2024-01-07T10:02:02;21.10;52.10
35325;DHT22;35135;47.510;19.036;2024-01-07T10:04:28;21.10;52.10
35325;DHT22;35135;47.510;19.036;2024-01-07T10:06:54;21.10;52.10
35325;DHT22;35135;47.510;19.036;2024-01-07T10:09:24;21.10;52.10
35325;DHT22;35135;47.510;19.036;2024-01-07T10:11:53;21.10;52.10
35325;DHT22;35135;47.510;19.036;2024-01-07T10:14:19;21.10;52.00
35325;DHT22;35135;47.510;19.036;2024-01-07T10:16:48;21.10;52.00
35325;DHT22;35135;47.510;19.036;2024-01-07T10:19:22;21.10;52.00
35325;DHT22;35135;47.510;19.036;2024-01-07T10:21:59;21.20;52.10
35325;DHT22;35135;47.510;19.036;2024-01-07T10:24:26;21.10;51.90
35325;DHT22;35135;47.510;19.036;2024-01-07T10:26:51;21.10;51.90
35325;DHT22;35135;47.510;19.036;2024-01-07T10:29:18;21.10;52.00
35325;DHT22;35135;47.510;19.036;2024-01-07T10:31:43;21.10;52.00
35325;DHT22;35135;47.510;19.036;2024-01-07T10:34:09;21.10;52.10
35325;DHT22;35135;47.510;19.036;2024-01-07T10:36:36;21.20;52.10
35325;DHT22;35135;47.510;19.036;2024-01-07T10:39:02;21.10;52.00
35325;DHT22;35135;47.510;19.036;2024-01-07T10:41:29;21.20;52.10
35325;DHT22;35135;47.510;19.036;2024-01-07T10:43:56;21.20;52.10
35325;DHT22;35135;47.510;19.036;2024-01-07T10:46:21;21.20;52.10
35325;DHT22;35135;47.510;19.036;2024-01-07T10:48:55;21.20;52.10
35325;DHT22;35135;47.510;19.036;2024-01-07T10:51:23;21.10;52.10
35325;DHT22;35135;47.510;19.036;2024-01-07T10:53:52;21.20;52.10
35325;DHT22;35135;47.510;19.036;2024-01-07T10:56:25;21.10;52.10
35325;DHT22;35135;47.510;19.036;2024-01-07T10:58:54;21.10;52.10
35325;DHT22;35135;47.510;19.036;2024-01-07T11:01:20;21.10;52.10
35325;DHT22;35135;47.510;19.036;2024-01-07T11:06:53;21.10;52.10
35325;DHT22;35135;47.510;19.036;2024-01-07T11:12:01;21.10;52.10
35325;DHT22;35135;47.510;19.036;2024-01-07T11:17:03;21.10;52.10
35325;DHT22;35135;47.510;19.036;2024-01-07T11:19:29;21.10;52.10
35325;DHT22;35135;47.510;19.036;2024-01-07T11:22:26;21.10;52.20
35325;DHT22;35135;47.510;19.036;2024-01-07T11:24:59;21.10;52.20
35325;DHT22;35135;47.510;19.036;2024-01-07T11:27:31;21.10;52.10
35325;DHT22;35135;47.510;19.036;2024-01-07T11:30:18;21.10;52.20
35325;DHT22;35135;47.510;19.036;2024-01-07T11:32:47;21.10;52.30
35325;DHT22;35135;47.510;19.036;2024-01-07T11:35:13;21.20;52.30
35325;DHT22;35135;47.510;19.036;2024-01-07T11:37:41;21.10;52.20
35325;DHT22;35135;47.510;19.036;2024-01-07T11:40:07;21.10;52.50
35325;DHT22;35135;47.510;19.036;2024-01-07T11:42:33;21.10;52.50
35325;DHT22;35135;47.510;19.036;2024-01-07T11:44:59;21.10;52.50
35325;DHT22;35135;47.510;19.036;2024-01-07T11:47:25;21.20;52.60
35325;DHT22;35135;47.510;19.036;2024-01-07T11:49:54;21.20;52.60
35325;DHT22;35135;47.510;19.036;2024-01-07T11:52:20;21.20;52.80
35325;DHT22;35135;47.510;19.036;2024-01-07T11:54:47;21.20;52.70
35325;DHT22;35135;47.510;19.036;2024-01-07T11:57:13;21.20;52.70
35325;DHT22;35135;47.510;19.036;2024-01-07T11:59:39;21.20;52.60
35325;DHT22;35135;47.510;19.036;2024-01-07T12:02:05;21.20;52.70
35325;DHT22;35135;47.510;19.036;2024-01-07T12:04:32;21.20;52.80
35325;DHT22;35135;47.510;19.036;2024-01-07T12:06:58;21.20;52.70
35325;DHT22;35135;47.510;19.036;2024-01-07T12:09:27;21.20;52.70
35325;DHT22;35135;47.510;19.036;2024-01-07T12:11:53;21.20;52.90
35325;DHT22;35135;47.510;19.036;2024-01-07T12:14:19;21.20;52.90
35325;DHT22;35135;47.510;19.036;2024-01-07T12:16:46;21.20;52.90
35325;DHT22;35135;47.510;19.036;2024-01-07T12:19:12;21.20;52.90
35325;DHT22;35135;47.510;19.036;2024-01-07T12:34:34;21.20;52.40
35325;DHT22;35135;47.510;19.036;2024-01-07T12:36:59;21.30;52.80
35325;DHT22;35135;47.510;19.036;2024-01-07T12:39:25;21.30;52.80
35325;DHT22;35135;47.510;19.036;2024-01-07T12:41:50;21.30;52.80
35325;DHT22;35135;47.510;19.036;2024-01-07T12:44:16;21.30;52.90
35325;DHT22;35135;47.510;19.036;2024-01-07T12:46:42;21.30;52.90
35325;DHT22;35135;47.510;19.036;2024-01-07T12:49:08;21.20;52.90
35325;DHT22;35135;47.510;19.036;2024-01-07T12:51:34;21.20;52.80
35325;DHT22;35135;47.510;19.036;2024-01-07T12:54:00;21.30;53.00
35325;DHT22;35135;47.510;19.036;2024-01-07T12:56:29;21.30;52.90
35325;DHT22;35135;47.510;19.036;2024-01-07T12:58:54;21.20;52.80
35325;DHT22;35135;47.510;19.036;2024-01-07T13:01:20;21.20;52.80
35325;DHT22;35135;47.510;19.036;2024-01-07T13:03:46;21.20;52.70
35325;DHT22;35135;47.510;19.036;2024-01-07T13:06:11;21.20;52.70
35325;DHT22;35135;47.510;19.036;2024-01-07T13:08:37;21.20;52.70
35325;DHT22;35135;47.510;19.036;2024-01-07T13:11:03;21.20;52.70
35325;DHT22;35135;47.510;19.036;2024-01-07T13:13:29;21.20;52.70
35325;DHT22;35135;47.510;19.036;2024-01-07T13:15:55;21.20;52.70
35325;DHT22;35135;47.510;19.036;2024-01-07T13:18:22;21.20;52.70
35325;DHT22;35135;47.510;19.036;2024-01-07T13:20:48;21.20;52.70
35325;DHT22;35135;47.510;19.036;2024-01-07T13:23:13;21.20;52.70
35325;DHT22;35135;47.510;19.036;2024-01-07T13:25:39;21.20;52.70
35325;DHT22;35135;47.510;19.036;2024-01-07T13:28:05;21.20;52.70
35325;DHT22;35135;47.510;19.036;2024-01-07T13:30:36;21.20;52.70
35325;DHT22;35135;47.510;19.036;2024-01-07T13:33:01;21.20;52.80
35325;DHT22;35135;47.510;19.036;2024-01-07T13:35:28;21.20;52.80
35325;DHT22;35135;47.510;19.036;2024-01-07T13:37:54;21.20;52.70
35325;DHT22;35135;47.510;19.036;2024-01-07T13:40:19;21.20;52.70
35325;DHT22;35135;47.510;19.036;2024-01-07T13:42:45;21.20;52.80
35325;DHT22;35135;47.510;19.036;2024-01-07T13:45:11;21.20;52.80
35325;DHT22;35135;47.510;19.036;2024-01-07T13:47:38;21.20;52.60
35325;DHT22;35135;47.510;19.036;2024-01-07T13:50:04;21.20;52.60
35325;DHT22;35135;47.510;19.036;2024-01-07T13:52:30;21.20;52.70
35325;DHT22;35135;47.510;19.036;2024-01-07T13:54:56;21.20;52.60
35325;DHT22;35135;47.510;19.036;2024-01-07T13:57:22;21.20;52.70
35325;DHT22;35135;47.510;19.036;2024-01-07T13:59:48;21.20;52.70
35325;DHT22;35135;47.510;19.036;2024-01-07T14:02:14;21.20;52.70
35325;DHT22;35135;47.510;19.036;2024-01-07T14:04:44;21.20;52.70
35325;DHT22;35135;47.510;19.036;2024-01-07T14:07:10;21.20;52.80
35325;DHT22;35135;47.510;19.036;2024-01-07T14:09:36;21.20;52.80
35325;DHT22;35135;47.510;19.036;2024-01-07T14:12:01;21.20;52.70
35325;DHT22;35135;47.510;19.036;2024-01-07T14:14:28;21.20;52.70
35325;DHT22;35135;47.510;19.036;2024-01-07T14:16:53;21.20;52.90
35325;DHT22;35135;47.510;19.036;2024-01-07T14:19:19;21.20;53.00
35325;DHT22;35135;47.510;19.036;2024-01-07T14:21:45;21.20;53.00
35325;DHT22;35135;47.510;19.036;2024-01-07T14:24:11;21.20;53.00
35325;DHT22;35135;47.510;19.036;2024-01-07T14:26:37;21.20;52.90
35325;DHT22;35135;47.510;19.036;2024-01-07T14:29:02;21.20;52.80
35325;DHT22;35135;47.510;19.036;2024-01-07T14:31:29;21.20;52.90
35325;DHT22;35135;47.510;19.036;2024-01-07T14:33:55;21.20;52.90
35325;DHT22;35135;47.510;19.036;2024-01-07T14:36:20;21.20;52.90
35325;DHT22;35135;47.510;19.036;2024-01-07T14:38:46;21.20;52.80
35325;DHT22;35135;47.510;19.036;2024-01-07T14:41:14;21.20;52.80
35325;DHT22;35135;47.510;19.036;2024-01-07T14:43:41;21.20;53.00
35325;DHT22;35135;47.510;19.036;2024-01-07T14:46:07;21.20;53.00
35325;DHT22;35135;47.510;19.036;2024-01-07T14:48:34;21.20;53.00
35325;DHT22;35135;47.510;19.036;2024-01-07T14:51:00;21.20;53.10
35325;DHT22;35135;47.510;19.036;2024-01-07T14:53:26;21.20;52.90
35325;DHT22;35135;47.510;19.036;2024-01-07T14:56:00;21.20;53.10
35325;DHT22;35135;47.510;19.036;2024-01-07T14:58:25;21.20;52.90
35325;DHT22;35135;47.510;19.036;2024-01-07T15:00:51;21.20;52.90
35325;DHT22;35135;47.510;19.036;2024-01-07T15:03:17;21.20;52.80
35325;DHT22;35135;47.510;19.036;2024-01-07T15:05:44;21.30;52.90
35325;DHT22;35135;47.510;19.036;2024-01-07T15:08:10;21.20;52.80
35325;DHT22;35135;47.510;19.036;2024-01-07T15:10:40;21.20;52.80
35325;DHT22;35135;47.510;19.036;2024-01-07T15:13:06;21.20;52.80
35325;DHT22;35135;47.510;19.036;2024-01-07T15:15:32;21.20;52.80
35325;DHT22;35135;47.510;19.036;2024-01-07T15:17:58;21.20;52.70
35325;DHT22;35135;47.510;19.036;2024-01-07T15:20:24;21.30;52.80
35325;DHT22;35135;47.510;19.036;2024-01-07T15:22:50;21.20;52.70
35325;DHT22;35135;47.510;19.036;2024-01-07T15:25:16;21.20;52.70
35325;DHT22;35135;47.510;19.036;2024-01-07T15:27:43;21.20;52.60
35325;DHT22;35135;47.510;19.036;2024-01-07T15:30:09;21.20;52.60